Time;durP1;ratioP1;P1;durP2;ratioP2;P2;SDS_P1;SDS_P2;PMS_P1;PMS_P2;Temp;Humidity;BMP_temperature;BMP_pressure;BME280_temperature;BME280_humidity;BME280_pressure;Samples;Min_cycle;Max_cycle;Signal;HPM_P1;HPM_P2
2023/12/31 00:04:16;;;;;;;20.65;11.40;;;2.00;99.90;;;;;;21070215;28;20043;-54
2023/12/31 00:14:18;;;;;;;19.98;11.80;;;1.70;99.90;;;;;;21068943;28;20028;-55
2023/12/31 00:24:23;;;;;;;22.55;12.60;;;1.70;99.90;;;;;;21092351;28;20039;-54
2023/12/31 00:34:25;;;;;;;16.38;8.77;;;1.40;99.90;;;;;;21133775;28;20065;-51
2023/12/31 00:44:27;;;;;;;7.18;4.50;;;1.50;99.90;;;;;;21084327;28;20028;-50
2023/12/31 00:54:28;;;;;;;23.52;13.43;;;1.80;99.90;;;;;;21066706;28;20036;-54
2023/12/31 01:04:30;;;;;;;23.08;13.25;;;1.60;99.90;;;;;;21066918;28;20070;-50
2023/12/31 01:14:34;;;;;;;26.00;14.15;;;1.60;99.90;;;;;;21066158;28;20396;-48
2023/12/31 01:24:36;;;;;;;25.58;14.10;;;1.80;99.90;;;;;;21092093;28;20089;-55
2023/12/31 01:34:38;;;;;;;25.17;14.40;;;1.90;99.90;;;;;;21149583;28;20052;-52
2023/12/31 01:44:40;;;;;;;34.58;18.80;;;2.00;99.90;;;;;;21080005;28;20374;-52
2023/12/31 01:54:42;;;;;;;34.38;18.92;;;2.00;99.90;;;;;;21080885;28;20031;-47
2023/12/31 02:04:44;;;;;;;30.75;17.52;;;2.10;99.90;;;;;;21163231;28;20023;-54
2023/12/31 02:14:49;;;;;;;28.27;16.23;;;2.10;99.90;;;;;;21092112;28;20032;-54
2023/12/31 02:24:56;;;;;;;31.10;16.70;;;2.30;99.90;;;;;;21086496;28;20044;-54
2023/12/31 02:34:58;;;;;;;26.80;15.15;;;2.20;99.90;;;;;;21160716;28;20077;-53
2023/12/31 02:44:59;;;;;;;26.88;14.23;;;2.10;99.90;;;;;;21141767;28;20085;-49
2023/12/31 02:55:03;;;;;;;19.50;12.00;;;2.20;99.90;;;;;;21113689;28;20077;-50
2023/12/31 03:05:05;;;;;;;26.17;15.57;;;2.30;99.90;;;;;;21102190;28;20377;-46
2023/12/31 03:15:09;;;;;;;23.20;12.63;;;2.20;99.90;;;;;;21109439;28;20036;-51
2023/12/31 03:25:12;;;;;;;19.67;10.43;;;2.20;99.90;;;;;;21053883;28;20043;-53
2023/12/31 03:35:14;;;;;;;20.38;10.68;;;2.10;99.90;;;;;;21155581;28;20044;-55
2023/12/31 03:45:16;;;;;;;19.05;10.13;;;2.10;99.90;;;;;;21081167;28;20089;-51
2023/12/31 03:55:18;;;;;;;16.23;10.15;;;2.00;99.90;;;;;;21115018;28;20066;-50
2023/12/31 04:05:20;;;;;;;22.45;9.75;;;1.80;99.90;;;;;;21051876;28;20059;-52
2023/12/31 04:15:22;;;;;;;17.30;9.65;;;2.00;99.90;;;;;;21077986;28;20057;-53
2023/12/31 04:25:24;;;;;;;15.80;8.68;;;2.30;99.90;;;;;;21119369;28;20028;-49
2023/12/31 04:35:27;;;;;;;16.67;9.32;;;2.50;99.90;;;;;;21049922;28;20431;-54
2023/12/31 04:45:29;;;;;;;14.90;9.00;;;2.70;99.90;;;;;;21067469;28;20025;-53
2023/12/31 04:55:33;;;;;;;14.35;9.98;;;2.70;99.90;;;;;;21067160;28;20067;-51
2023/12/31 05:05:34;;;;;;;17.80;11.05;;;2.60;99.90;;;;;;21066969;28;20032;-58
2023/12/31 05:15:36;;;;;;;27.60;15.40;;;2.50;99.90;;;;;;21066154;28;20032;-58
2023/12/31 05:25:38;;;;;;;23.85;12.52;;;2.40;99.90;;;;;;21069777;28;20117;-57
2023/12/31 05:35:39;;;;;;;14.45;8.10;;;2.20;99.90;;;;;;21165781;28;20031;-57
2023/12/31 05:45:41;;;;;;;13.90;8.48;;;2.20;99.90;;;;;;21164786;28;20088;-58
2023/12/31 05:55:46;;;;;;;10.32;6.53;;;2.30;99.90;;;;;;21162463;28;20088;-58
2023/12/31 06:05:48;;;;;;;7.88;4.50;;;2.30;99.90;;;;;;21160803;28;20039;-58
2023/12/31 06:15:50;;;;;;;9.65;5.28;;;2.50;99.90;;;;;;21159861;28;20104;-58
2023/12/31 06:25:51;;;;;;;11.93;6.72;;;2.60;99.90;;;;;;21160065;28;20040;-58
2023/12/31 06:35:53;;;;;;;14.23;7.72;;;2.50;99.90;;;;;;21157722;28;20036;-53
2023/12/31 06:45:55;;;;;;;22.50;11.18;;;2.60;99.90;;;;;;21157200;28;20035;-57
2023/12/31 06:56:07;;;;;;;9.70;5.38;;;2.60;99.90;;;;;;21152820;28;20035;-55
2023/12/31 07:06:09;;;;;;;13.38;7.07;;;2.80;99.90;;;;;;21155276;28;20434;-44
2023/12/31 07:16:10;;;;;;;14.25;7.78;;;2.70;99.90;;;;;;21145502;28;20488;-48
2023/12/31 07:26:22;;;;;;;9.43;5.47;;;2.50;99.90;;;;;;21154256;28;20044;-43
2023/12/31 07:36:26;;;;;;;11.15;5.75;;;2.50;99.90;;;;;;21153928;28;20472;-46
2023/12/31 07:46:29;;;;;;;13.85;7.45;;;2.90;99.90;;;;;;21146977;28;20080;-54
2023/12/31 07:56:30;;;;;;;12.68;6.38;;;3.10;99.90;;;;;;21151079;28;20031;-53
2023/12/31 08:06:32;;;;;;;12.00;7.03;;;3.20;99.90;;;;;;21151167;28;20419;-53
2023/12/31 08:16:34;;;;;;;11.40;7.10;;;3.40;99.90;;;;;;21149788;28;20104;-43
2023/12/31 08:26:37;;;;;;;10.35;6.32;;;3.50;99.90;;;;;;21149924;28;20043;-50
2023/12/31 08:36:38;;;;;;;8.25;4.60;;;3.50;99.90;;;;;;21149640;28;20035;-56
2023/12/31 08:46:41;;;;;;;10.15;5.80;;;3.70;99.90;;;;;;21142181;28;20027;-56
2023/12/31 08:56:42;;;;;;;9.43;5.22;;;3.70;99.90;;;;;;21148075;28;20032;-54
2023/12/31 09:06:46;;;;;;;8.68;4.65;;;3.70;99.90;;;;;;21146189;28;20035;-45
2023/12/31 09:16:47;;;;;;;6.47;4.07;;;3.90;99.90;;;;;;21145911;27;20035;-56
2023/12/31 09:26:49;;;;;;;190.32;11.82;;;4.10;99.90;;;;;;21165248;27;20085;-55
2023/12/31 09:36:51;;;;;;;415.08;18.85;;;4.10;99.90;;;;;;21159615;28;20020;-46
2023/12/31 09:47:07;;;;;;;503.88;21.95;;;3.90;99.90;;;;;;21133797;27;20040;-57
2023/12/31 09:57:10;;;;;;;465.83;21.58;;;3.90;99.90;;;;;;21152754;27;20024;-54
2023/12/31 10:07:12;;;;;;;546.30;22.80;;;4.00;99.90;;;;;;21156386;28;20028;-57
2023/12/31 10:17:14;;;;;;;410.75;19.02;;;4.10;99.90;;;;;;21158109;27;20031;-56
2023/12/31 10:27:16;;;;;;;271.23;12.25;;;4.10;99.90;;;;;;21137236;28;20582;-53
2023/12/31 10:37:22;;;;;;;5.20;3.15;;;4.00;99.90;;;;;;21088662;28;20552;-47
2023/12/31 10:47:28;;;;;;;17.75;4.60;;;4.30;99.90;;;;;;21082265;28;20028;-54
2023/12/31 10:57:30;;;;;;;5.57;3.38;;;4.50;99.90;;;;;;21082498;28;20032;-56
2023/12/31 11:07:35;;;;;;;4.30;3.10;;;4.70;99.90;;;;;;21086022;28;20485;-53
2023/12/31 11:17:56;;;;;;;6.60;4.35;;;4.90;99.90;;;;;;21092005;28;20032;-50
2023/12/31 11:27:58;;;;;;;635.28;23.85;;;4.90;99.90;;;;;;21101397;28;20069;-54
2023/12/31 11:38:04;;;;;;;655.50;22.42;;;4.80;99.90;;;;;;21148029;27;20082;-55
2023/12/31 11:48:20;;;;;;;960.13;28.98;;;4.60;99.90;;;;;;21146632;27;20069;-52
2023/12/31 11:58:22;;;;;;;383.23;10.95;;;4.40;99.90;;;;;;21146831;28;20116;-49
2023/12/31 12:08:26;;;;;;;440.13;12.95;;;4.30;99.90;;;;;;21146539;28;20038;-55
2023/12/31 12:18:29;;;;;;;0.20;0.10;;;4.30;99.90;;;;;;21145862;28;20024;-54
2023/12/31 12:28:34;;;;;;;105.32;2.75;;;4.30;99.90;;;;;;21145067;28;20044;-53
2023/12/31 12:38:37;;;;;;;104.30;2.90;;;4.30;99.90;;;;;;21143691;28;20065;-51
2023/12/31 12:48:46;;;;;;;184.20;6.53;;;4.40;99.90;;;;;;21124760;28;20074;-46
2023/12/31 12:58:49;;;;;;;498.53;16.30;;;4.40;99.90;;;;;;21143464;28;20042;-52
2023/12/31 13:08:51;;;;;;;269.88;8.23;;;4.40;99.90;;;;;;21143597;28;20028;-55
2023/12/31 13:18:53;;;;;;;14.45;0.40;;;4.30;99.90;;;;;;21140824;28;20480;-56
2023/12/31 13:28:55;;;;;;;297.38;11.27;;;4.30;99.90;;;;;;21142226;28;20048;-43
2023/12/31 13:38:56;;;;;;;248.65;9.32;;;4.30;99.90;;;;;;21140333;28;20046;-56
2023/12/31 13:48:58;;;;;;;499.88;17.55;;;4.40;99.90;;;;;;21148326;28;20051;-55
2023/12/31 13:59:00;;;;;;;732.92;29.63;;;4.40;99.90;;;;;;21160441;28;20040;-53
2023/12/31 14:09:03;;;;;;;647.28;27.13;;;4.40;99.90;;;;;;21159487;28;20061;-54
2023/12/31 14:19:08;;;;;;;430.67;14.88;;;4.40;99.90;;;;;;21151318;27;20077;-48
2023/12/31 14:29:11;;;;;;;269.20;12.02;;;4.40;99.90;;;;;;21150545;27;20054;-51
2023/12/31 14:39:15;;;;;;;99.57;7.00;;;4.30;99.90;;;;;;21151545;28;20076;-52
2023/12/31 14:49:18;;;;;;;482.70;23.35;;;4.40;99.90;;;;;;21153335;27;20085;-57
2023/12/31 14:59:19;;;;;;;152.13;7.05;;;4.30;99.90;;;;;;21153736;28;20032;-56
2023/12/31 15:09:24;;;;;;;47.10;4.18;;;4.40;99.90;;;;;;21153382;28;20061;-57
2023/12/31 15:19:27;;;;;;;329.17;17.25;;;4.40;99.90;;;;;;21153220;28;20040;-55
2023/12/31 15:29:30;;;;;;;70.00;2.63;;;4.50;99.90;;;;;;21152033;28;20048;-57
2023/12/31 15:39:32;;;;;;;539.03;20.83;;;4.40;99.90;;;;;;21150250;28;20044;-56
2023/12/31 15:49:39;;;;;;;762.58;38.08;;;4.40;99.90;;;;;;21150685;28;20092;-56
2023/12/31 15:59:41;;;;;;;485.60;21.05;;;4.30;99.90;;;;;;21149690;28;20027;-57
2023/12/31 16:09:43;;;;;;;413.38;17.40;;;4.20;99.90;;;;;;21148475;28;20040;-56
2023/12/31 16:19:45;;;;;;;251.73;10.63;;;4.20;99.90;;;;;;21150076;28;20036;-44
2023/12/31 16:29:47;;;;;;;286.60;12.32;;;4.10;99.90;;;;;;21174304;27;20036;-57
2023/12/31 16:39:49;;;;;;;83.25;3.42;;;4.10;99.90;;;;;;21208204;27;20043;-56
2023/12/31 16:49:52;;;;;;;283.08;10.32;;;4.10;99.90;;;;;;21185699;28;20079;-56
2023/12/31 16:59:54;;;;;;;508.63;17.38;;;4.10;99.90;;;;;;21148591;28;20031;-57
2023/12/31 17:09:55;;;;;;;192.43;6.38;;;4.20;99.90;;;;;;21150555;28;20028;-59
2023/12/31 17:19:58;;;;;;;64.63;2.55;;;4.10;99.90;;;;;;21150005;28;20035;-47
2023/12/31 17:30:01;;;;;;;9.82;1.10;;;4.10;99.90;;;;;;21163414;28;20040;-56
2023/12/31 17:40:05;;;;;;;1.33;0.85;;;4.10;99.90;;;;;;21195917;27;20027;-56
2023/12/31 17:50:07;;;;;;;0.73;0.20;;;4.10;99.90;;;;;;21177835;27;20031;-50
2023/12/31 18:00:09;;;;;;;0.22;0.10;;;4.10;99.90;;;;;;21237830;27;20027;-51
2023/12/31 18:10:15;;;;;;;1.48;0.90;;;4.10;99.90;;;;;;21169352;27;20739;-53
2023/12/31 18:20:16;;;;;;;88.30;4.20;;;4.10;99.90;;;;;;21162475;28;20088;-51
2023/12/31 18:30:21;;;;;;;288.40;10.07;;;4.20;99.90;;;;;;21119185;28;20056;-51
2023/12/31 18:40:24;;;;;;;500.10;19.42;;;4.20;99.90;;;;;;21072751;28;20036;-56
2023/12/31 18:50:27;;;;;;;170.50;6.43;;;4.30;99.90;;;;;;21075530;28;20028;-56
2023/12/31 19:00:29;;;;;;;581.88;19.67;;;4.20;99.90;;;;;;21074999;28;20180;-52
2023/12/31 19:10:31;;;;;;;232.85;7.45;;;4.20;99.90;;;;;;21045469;28;20037;-44
2023/12/31 19:20:32;;;;;;;72.10;4.05;;;4.10;99.90;;;;;;21054654;28;20039;-56
2023/12/31 19:30:35;;;;;;;735.88;28.85;;;4.10;99.90;;;;;;21116223;28;20044;-56
2023/12/31 19:40:37;;;;;;;530.60;19.55;;;4.10;99.90;;;;;;21156314;28;20053;-53
2023/12/31 19:50:39;;;;;;;745.35;24.45;;;4.30;99.90;;;;;;21154017;28;20039;-51
2023/12/31 20:00:41;;;;;;;1477.88;45.72;;;4.30;99.90;;;;;;21150444;28;20128;-55
2023/12/31 20:10:43;;;;;;;1389.10;46.97;;;4.30;99.90;;;;;;21151442;28;20481;-51
2023/12/31 20:20:44;;;;;;;755.13;28.55;;;4.50;99.90;;;;;;21153084;28;20020;-45
2023/12/31 20:30:46;;;;;;;272.60;12.02;;;4.50;99.90;;;;;;21106744;28;20040;-51
2023/12/31 20:40:48;;;;;;;5.47;3.40;;;4.60;99.90;;;;;;21067640;28;20040;-52
2023/12/31 20:50:51;;;;;;;665.75;26.60;;;4.50;99.90;;;;;;21046571;28;20335;-53
2023/12/31 21:00:52;;;;;;;11.45;4.50;;;4.50;99.90;;;;;;21056353;28;20082;-51
2023/12/31 21:10:56;;;;;;;765.88;35.65;;;4.50;99.90;;;;;;21083461;28;20085;-48
2023/12/31 21:20:58;;;;;;;1888.55;66.70;;;4.40;99.90;;;;;;21081897;28;20048;-52
2023/12/31 21:31:01;;;;;;;486.30;15.10;;;4.50;99.90;;;;;;21177749;27;20031;-54
2023/12/31 21:41:03;;;;;;;591.67;26.15;;;4.40;99.90;;;;;;21211708;27;20541;-52
2023/12/31 21:51:06;;;;;;;591.03;27.38;;;4.40;99.90;;;;;;21164832;28;20031;-51
2023/12/31 22:01:08;;;;;;;339.75;17.52;;;4.40;99.90;;;;;;21163073;27;20561;-57
2023/12/31 22:11:11;;;;;;;0.13;0.05;;;4.40;99.90;;;;;;21162167;28;20085;-56
2023/12/31 22:21:13;;;;;;;0.10;0.00;;;3.60;99.90;;;;;;21162555;28;20076;-54
2023/12/31 22:31:15;;;;;;;0.10;0.00;;;3.10;99.90;;;;;;21244674;27;20039;-54
2023/12/31 22:41:18;;;;;;;1.05;0.60;;;3.00;99.90;;;;;;21165955;27;20042;-44
2023/12/31 22:51:20;;;;;;;18.27;1.95;;;2.90;99.90;;;;;;21160260;28;20077;-53
2023/12/31 23:01:21;;;;;;;0.57;0.38;;;2.90;99.90;;;;;;21159422;28;20019;-55
2023/12/31 23:11:23;;;;;;;0.00;0.00;;;3.00;99.90;;;;;;21200872;27;20038;-46
2023/12/31 23:21:25;;;;;;;294.30;12.43;;;3.00;99.90;;;;;;21170770;27;20561;-45
2023/12/31 23:31:27;;;;;;;902.70;30.92;;;3.00;99.90;;;;;;21104492;27;20081;-56
2023/12/31 23:41:29;;;;;;;24.35;1.92;;;2.80;99.90;;;;;;21124938;27;20031;-52
2023/12/31 23:51:31;;;;;;;261.38;9.35;;;2.80;99.90;;;;;;21154772;28;20040;-50
